Medkon Istanbul — 3EZT3 — position and weather

sailwx.info

Track history (hours):
 
Tides and Currents Weather Stations Pressure Air Temp Water Temp Dewpoint Dewpoint Depression Visibility Wind Speed Wind Dir Waves Ship Positions

Medkon Istanbul

Last reported at 2018-Jun-15 07:53 UTC. Time now 2018-Jun-22 03:43 UTC.
Position N 40°36' E 028°47'.

Length 100 m; draft 7.8 m.

Type: Ship. MMSI: 374819000.

Date/timePositionNaut miles runAvg speedWind from/ knotsBaromVisibWave heightAir tempDewpointWater temp
2018-Jun-15 07:53N 40°36' E 028°47'711.3
2018-Jun-15 07:17N 40°39' E 028°55'411.0
2018-Jun-15 06:58N 40°41' E 028°59'48 1.9
2018-Jun-14 05:30N 40°43' E 027°55'510.2
2018-Jun-14 04:59N 40°43' E 027°49'510.3
2018-Jun-14 04:30N 40°43' E 027°42'510.3
2018-Jun-14 04:00N 40°42' E 027°35'510.2
2018-Jun-14 03:30N 40°40' E 027°29'86 9.0
2018-Jun-13 17:59N 39°53' E 025°55'510.3
2018-Jun-13 17:31N 39°48' E 025°53'  
2018-Jun-09 18:26N 31°37' E 030°18'2810.2
2018-Jun-09 15:44N 31°43' E 030°50'1610.1
2018-Jun-09 14:08N 31°45' E 031°09'210.1
2018-Jun-09 13:59N 31°45' E 031°10'13 9.9
2018-Jun-09 12:39N 31°45' E 031°26'4 9.5
2018-Jun-09 12:17N 31°44' E 031°30'4 9.9
2018-Jun-09 11:52N 31°42' E 031°34'410.0
2018-Jun-09 11:31N 31°40' E 031°37'11 0.5
2018-Jun-08 14:05N 31°31' E 031°46'1 9.6
2018-Jun-08 13:59N 31°32' E 031°46'3 4.0
2018-Jun-08 13:10N 31°36' E 031°46'0 0.0
2018-Jun-08 12:58N 31°36' E 031°46'0 0.0
2018-Jun-08 12:10N 31°36' E 031°46'0 0.0
2018-Jun-08 11:40N 31°36' E 031°46'29 3.7
2018-Jun-08 03:49N 31°57' E 031°23'2410.7
2018-Jun-08 01:36N 32°12' E 031°01'  
Track history (hours):
 
Tides and Currents Weather Stations Pressure Air Temp Water Temp Dewpoint Dewpoint Depression Visibility Wind Speed Wind Dir Waves Ship Positions

Medkon Istanbul

Last reported at 2018-Jun-15 07:53 UTC. Time now 2018-Jun-22 03:43 UTC.
Position N 40°36' E 028°47'.

Length 100 m; draft 7.8 m.

Type: Ship. MMSI: 374819000.

Date/timePositionNaut miles runAvg speedWind from/ knotsBaromVisibWave heightAir tempDewpointWater temp
2018-Jun-15 07:53N 40°36' E 028°47'711.3
2018-Jun-15 07:17N 40°39' E 028°55'411.0
2018-Jun-15 06:58N 40°41' E 028°59'48 1.9
2018-Jun-14 05:30N 40°43' E 027°55'510.2
2018-Jun-14 04:59N 40°43' E 027°49'510.3
2018-Jun-14 04:30N 40°43' E 027°42'510.3
2018-Jun-14 04:00N 40°42' E 027°35'510.2
2018-Jun-14 03:30N 40°40' E 027°29'86 9.0
2018-Jun-13 17:59N 39°53' E 025°55'510.3
2018-Jun-13 17:31N 39°48' E 025°53'  
2018-Jun-09 18:26N 31°37' E 030°18'2810.2
2018-Jun-09 15:44N 31°43' E 030°50'1610.1
2018-Jun-09 14:08N 31°45' E 031°09'210.1
2018-Jun-09 13:59N 31°45' E 031°10'13 9.9
2018-Jun-09 12:39N 31°45' E 031°26'4 9.5
2018-Jun-09 12:17N 31°44' E 031°30'4 9.9
2018-Jun-09 11:52N 31°42' E 031°34'410.0
2018-Jun-09 11:31N 31°40' E 031°37'11 0.5
2018-Jun-08 14:05N 31°31' E 031°46'1 9.6
2018-Jun-08 13:59N 31°32' E 031°46'3 4.0
2018-Jun-08 13:10N 31°36' E 031°46'0 0.0
2018-Jun-08 12:58N 31°36' E 031°46'0 0.0
2018-Jun-08 12:10N 31°36' E 031°46'0 0.0
2018-Jun-08 11:40N 31°36' E 031°46'29 3.7
2018-Jun-08 03:49N 31°57' E 031°23'2410.7
2018-Jun-08 01:36N 32°12' E 031°01'  

Dump ship's entire track history